sensor_id;sensor_type;location;lat;lon;timestamp;P1;durP1;ratioP1;P2;durP2;ratioP2
23608;SDS011;11982;50.810;4.442;2022-09-17T00:01:16;13.77;;;2.03;;
23608;SDS011;11982;50.810;4.442;2022-09-17T00:03:43;17.17;;;3.03;;
23608;SDS011;11982;50.810;4.442;2022-09-17T00:06:14;21.75;;;3.33;;
23608;SDS011;11982;50.810;4.442;2022-09-17T00:08:40;12.27;;;2.40;;
23608;SDS011;11982;50.810;4.442;2022-09-17T00:11:10;12.43;;;2.97;;
23608;SDS011;11982;50.810;4.442;2022-09-17T00:13:41;11.63;;;2.20;;
23608;SDS011;11982;50.810;4.442;2022-09-17T00:16:07;13.98;;;2.58;;
23608;SDS011;11982;50.810;4.442;2022-09-17T00:18:33;12.18;;;2.38;;
23608;SDS011;11982;50.810;4.442;2022-09-17T00:21:01;15.77;;;2.28;;
23608;SDS011;11982;50.810;4.442;2022-09-17T00:23:27;16.55;;;3.40;;
23608;SDS011;11982;50.810;4.442;2022-09-17T00:25:53;13.60;;;2.90;;
23608;SDS011;11982;50.810;4.442;2022-09-17T00:28:18;18.48;;;3.38;;
23608;SDS011;11982;50.810;4.442;2022-09-17T00:30:44;14.52;;;2.90;;
23608;SDS011;11982;50.810;4.442;2022-09-17T00:33:11;11.85;;;2.90;;
23608;SDS011;11982;50.810;4.442;2022-09-17T00:35:38;18.67;;;3.30;;
23608;SDS011;11982;50.810;4.442;2022-09-17T00:38:04;21.27;;;3.13;;
23608;SDS011;11982;50.810;4.442;2022-09-17T00:40:30;16.10;;;2.65;;
23608;SDS011;11982;50.810;4.442;2022-09-17T00:42:55;12.52;;;2.63;;
23608;SDS011;11982;50.810;4.442;2022-09-17T00:45:21;9.90;;;2.67;;
23608;SDS011;11982;50.810;4.442;2022-09-17T00:47:56;13.38;;;2.63;;
23608;SDS011;11982;50.810;4.442;2022-09-17T00:52:50;18.73;;;2.88;;
23608;SDS011;11982;50.810;4.442;2022-09-17T00:55:20;18.35;;;2.95;;
23608;SDS011;11982;50.810;4.442;2022-09-17T00:57:57;13.20;;;2.47;;
23608;SDS011;11982;50.810;4.442;2022-09-17T01:00:25;8.35;;;2.20;;
23608;SDS011;11982;50.810;4.442;2022-09-17T01:02:52;11.88;;;2.15;;
23608;SDS011;11982;50.810;4.442;2022-09-17T01:05:20;17.52;;;2.90;;
23608;SDS011;11982;50.810;4.442;2022-09-17T01:11:05;12.30;;;3.70;;
23608;SDS011;11982;50.810;4.442;2022-09-17T01:16:26;17.52;;;4.03;;
23608;SDS011;11982;50.810;4.442;2022-09-17T01:21:58;13.80;;;4.15;;
23608;SDS011;11982;50.810;4.442;2022-09-17T01:24:45;17.60;;;4.20;;
23608;SDS011;11982;50.810;4.442;2022-09-17T01:35:50;20.65;;;4.55;;
23608;SDS011;11982;50.810;4.442;2022-09-17T01:38:34;19.30;;;4.43;;
23608;SDS011;11982;50.810;4.442;2022-09-17T01:44:01;21.38;;;4.47;;
23608;SDS011;11982;50.810;4.442;2022-09-17T01:46:42;20.35;;;4.00;;
23608;SDS011;11982;50.810;4.442;2022-09-17T01:49:14;16.00;;;3.83;;
23608;SDS011;11982;50.810;4.442;2022-09-17T01:51:42;13.15;;;3.42;;
23608;SDS011;11982;50.810;4.442;2022-09-17T01:54:27;19.83;;;3.15;;
23608;SDS011;11982;50.810;4.442;2022-09-17T01:57:00;14.23;;;2.38;;
23608;SDS011;11982;50.810;4.442;2022-09-17T02:02:31;12.75;;;2.35;;
23608;SDS011;11982;50.810;4.442;2022-09-17T02:08:02;12.48;;;2.55;;
23608;SDS011;11982;50.810;4.442;2022-09-17T02:10:33;13.98;;;2.10;;
23608;SDS011;11982;50.810;4.442;2022-09-17T02:13:18;16.00;;;3.00;;
23608;SDS011;11982;50.810;4.442;2022-09-17T02:16:06;13.40;;;2.40;;
23608;SDS011;11982;50.810;4.442;2022-09-17T02:25:03;15.60;;;2.53;;
23608;SDS011;11982;50.810;4.442;2022-09-17T02:27:22;13.63;;;2.35;;
23608;SDS011;11982;50.810;4.442;2022-09-17T02:29:52;12.23;;;2.53;;
23608;SDS011;11982;50.810;4.442;2022-09-17T02:32:17;13.18;;;2.35;;
23608;SDS011;11982;50.810;4.442;2022-09-17T02:34:43;14.25;;;1.90;;
23608;SDS011;11982;50.810;4.442;2022-09-17T02:37:10;16.80;;;2.55;;
23608;SDS011;11982;50.810;4.442;2022-09-17T02:39:35;17.67;;;2.78;;
23608;SDS011;11982;50.810;4.442;2022-09-17T02:47:40;20.52;;;2.47;;
23608;SDS011;11982;50.810;4.442;2022-09-17T02:50:25;16.73;;;2.30;;
23608;SDS011;11982;50.810;4.442;2022-09-17T02:53:02;19.48;;;2.55;;
23608;SDS011;11982;50.810;4.442;2022-09-17T02:58:45;15.65;;;2.70;;
23608;SDS011;11982;50.810;4.442;2022-09-17T03:01:30;15.57;;;2.10;;
23608;SDS011;11982;50.810;4.442;2022-09-17T03:04:02;17.17;;;2.88;;
23608;SDS011;11982;50.810;4.442;2022-09-17T03:06:31;16.02;;;2.22;;
23608;SDS011;11982;50.810;4.442;2022-09-17T03:08:56;13.95;;;2.08;;
23608;SDS011;11982;50.810;4.442;2022-09-17T03:11:22;18.33;;;2.45;;
23608;SDS011;11982;50.810;4.442;2022-09-17T03:13:48;11.95;;;2.10;;
23608;SDS011;11982;50.810;4.442;2022-09-17T03:16:14;13.05;;;1.90;;
23608;SDS011;11982;50.810;4.442;2022-09-17T03:18:40;22.70;;;2.90;;
23608;SDS011;11982;50.810;4.442;2022-09-17T03:21:05;17.98;;;2.80;;
23608;SDS011;11982;50.810;4.442;2022-09-17T03:23:31;22.30;;;2.28;;
23608;SDS011;11982;50.810;4.442;2022-09-17T03:25:57;22.15;;;3.20;;
23608;SDS011;11982;50.810;4.442;2022-09-17T03:28:23;19.20;;;2.92;;
23608;SDS011;11982;50.810;4.442;2022-09-17T03:30:50;15.20;;;2.22;;
23608;SDS011;11982;50.810;4.442;2022-09-17T03:33:16;11.77;;;2.00;;
23608;SDS011;11982;50.810;4.442;2022-09-17T03:35:43;15.23;;;2.15;;
23608;SDS011;11982;50.810;4.442;2022-09-17T03:38:09;17.33;;;2.40;;
23608;SDS011;11982;50.810;4.442;2022-09-17T03:40:35;18.48;;;3.00;;
23608;SDS011;11982;50.810;4.442;2022-09-17T03:43:00;18.85;;;2.40;;
23608;SDS011;11982;50.810;4.442;2022-09-17T03:45:26;23.35;;;2.78;;
23608;SDS011;11982;50.810;4.442;2022-09-17T03:47:52;16.73;;;2.63;;
23608;SDS011;11982;50.810;4.442;2022-09-17T03:50:17;22.63;;;2.65;;
23608;SDS011;11982;50.810;4.442;2022-09-17T03:52:43;19.70;;;2.75;;
23608;SDS011;11982;50.810;4.442;2022-09-17T03:55:09;27.02;;;2.90;;
23608;SDS011;11982;50.810;4.442;2022-09-17T03:57:35;16.98;;;2.50;;
23608;SDS011;11982;50.810;4.442;2022-09-17T04:00:01;19.75;;;3.20;;
23608;SDS011;11982;50.810;4.442;2022-09-17T04:02:28;21.88;;;2.80;;
23608;SDS011;11982;50.810;4.442;2022-09-17T04:04:54;17.58;;;3.33;;
23608;SDS011;11982;50.810;4.442;2022-09-17T04:07:19;17.23;;;2.70;;
23608;SDS011;11982;50.810;4.442;2022-09-17T04:09:45;22.00;;;3.25;;
23608;SDS011;11982;50.810;4.442;2022-09-17T04:12:10;27.60;;;3.08;;
23608;SDS011;11982;50.810;4.442;2022-09-17T04:14:36;27.67;;;3.10;;
23608;SDS011;11982;50.810;4.442;2022-09-17T04:17:01;18.95;;;3.35;;
23608;SDS011;11982;50.810;4.442;2022-09-17T04:19:27;29.52;;;2.92;;
23608;SDS011;11982;50.810;4.442;2022-09-17T04:21:53;23.33;;;3.00;;
23608;SDS011;11982;50.810;4.442;2022-09-17T04:24:18;25.30;;;3.08;;
23608;SDS011;11982;50.810;4.442;2022-09-17T04:26:44;30.52;;;3.83;;
23608;SDS011;11982;50.810;4.442;2022-09-17T04:29:10;22.38;;;2.67;;
23608;SDS011;11982;50.810;4.442;2022-09-17T04:31:35;25.13;;;3.28;;
23608;SDS011;11982;50.810;4.442;2022-09-17T04:34:01;32.70;;;3.22;;
23608;SDS011;11982;50.810;4.442;2022-09-17T04:36:27;29.00;;;3.15;;
23608;SDS011;11982;50.810;4.442;2022-09-17T04:38:52;32.88;;;3.42;;
23608;SDS011;11982;50.810;4.442;2022-09-17T04:41:18;23.95;;;2.88;;
23608;SDS011;11982;50.810;4.442;2022-09-17T04:43:44;33.38;;;3.63;;
23608;SDS011;11982;50.810;4.442;2022-09-17T04:46:09;28.23;;;3.08;;
23608;SDS011;11982;50.810;4.442;2022-09-17T04:48:36;22.58;;;2.80;;
23608;SDS011;11982;50.810;4.442;2022-09-17T04:51:01;24.27;;;3.55;;
23608;SDS011;11982;50.810;4.442;2022-09-17T04:53:27;23.35;;;3.05;;
23608;SDS011;11982;50.810;4.442;2022-09-17T04:55:53;28.27;;;3.20;;
23608;SDS011;11982;50.810;4.442;2022-09-17T04:58:18;26.25;;;3.33;;
23608;SDS011;11982;50.810;4.442;2022-09-17T05:00:44;28.65;;;3.55;;
23608;SDS011;11982;50.810;4.442;2022-09-17T05:03:09;28.92;;;3.13;;
23608;SDS011;11982;50.810;4.442;2022-09-17T05:05:35;27.48;;;3.33;;
23608;SDS011;11982;50.810;4.442;2022-09-17T05:08:01;25.25;;;3.17;;
23608;SDS011;11982;50.810;4.442;2022-09-17T05:10:27;21.40;;;3.38;;
23608;SDS011;11982;50.810;4.442;2022-09-17T05:12:54;21.52;;;3.38;;
23608;SDS011;11982;50.810;4.442;2022-09-17T05:15:21;32.83;;;3.78;;
23608;SDS011;11982;50.810;4.442;2022-09-17T05:17:48;28.60;;;3.47;;
23608;SDS011;11982;50.810;4.442;2022-09-17T05:20:14;27.17;;;2.80;;
23608;SDS011;11982;50.810;4.442;2022-09-17T05:22:44;33.13;;;3.88;;
23608;SDS011;11982;50.810;4.442;2022-09-17T05:25:12;27.77;;;3.90;;
23608;SDS011;11982;50.810;4.442;2022-09-17T05:27:39;20.23;;;2.97;;
23608;SDS011;11982;50.810;4.442;2022-09-17T05:30:05;32.63;;;3.85;;
23608;SDS011;11982;50.810;4.442;2022-09-17T05:32:32;24.77;;;2.95;;
23608;SDS011;11982;50.810;4.442;2022-09-17T05:34:58;19.75;;;2.95;;
23608;SDS011;11982;50.810;4.442;2022-09-17T05:37:23;22.63;;;3.63;;
23608;SDS011;11982;50.810;4.442;2022-09-17T05:39:49;29.20;;;3.55;;
23608;SDS011;11982;50.810;4.442;2022-09-17T05:42:15;17.63;;;3.38;;
23608;SDS011;11982;50.810;4.442;2022-09-17T05:44:40;18.52;;;2.70;;
23608;SDS011;11982;50.810;4.442;2022-09-17T05:47:06;24.90;;;3.22;;
23608;SDS011;11982;50.810;4.442;2022-09-17T05:49:31;30.20;;;3.95;;
23608;SDS011;11982;50.810;4.442;2022-09-17T05:51:57;34.05;;;3.78;;
23608;SDS011;11982;50.810;4.442;2022-09-17T05:54:23;23.63;;;3.67;;
23608;SDS011;11982;50.810;4.442;2022-09-17T05:56:52;32.47;;;4.03;;
23608;SDS011;11982;50.810;4.442;2022-09-17T05:59:18;25.70;;;3.55;;
23608;SDS011;11982;50.810;4.442;2022-09-17T06:01:43;25.13;;;3.28;;
23608;SDS011;11982;50.810;4.442;2022-09-17T06:04:09;30.27;;;3.78;;
23608;SDS011;11982;50.810;4.442;2022-09-17T06:06:35;23.88;;;4.13;;
23608;SDS011;11982;50.810;4.442;2022-09-17T06:09:02;23.63;;;3.67;;
23608;SDS011;11982;50.810;4.442;2022-09-17T06:11:29;23.77;;;3.00;;
23608;SDS011;11982;50.810;4.442;2022-09-17T06:13:55;26.75;;;3.38;;
23608;SDS011;11982;50.810;4.442;2022-09-17T06:16:21;21.65;;;3.30;;
23608;SDS011;11982;50.810;4.442;2022-09-17T06:18:47;22.58;;;3.42;;
23608;SDS011;11982;50.810;4.442;2022-09-17T06:21:14;23.92;;;3.10;;
23608;SDS011;11982;50.810;4.442;2022-09-17T06:23:41;23.33;;;3.25;;
23608;SDS011;11982;50.810;4.442;2022-09-17T06:26:07;21.13;;;3.60;;
23608;SDS011;11982;50.810;4.442;2022-09-17T06:28:33;23.60;;;3.17;;
23608;SDS011;11982;50.810;4.442;2022-09-17T06:31:00;31.20;;;3.88;;
23608;SDS011;11982;50.810;4.442;2022-09-17T06:33:27;22.45;;;3.75;;
23608;SDS011;11982;50.810;4.442;2022-09-17T06:35:56;21.08;;;3.15;;
23608;SDS011;11982;50.810;4.442;2022-09-17T06:38:27;19.50;;;3.30;;
23608;SDS011;11982;50.810;4.442;2022-09-17T06:40:53;14.60;;;3.05;;
23608;SDS011;11982;50.810;4.442;2022-09-17T06:43:18;23.38;;;3.15;;
23608;SDS011;11982;50.810;4.442;2022-09-17T06:45:54;23.35;;;3.13;;
23608;SDS011;11982;50.810;4.442;2022-09-17T06:48:22;22.40;;;3.15;;
23608;SDS011;11982;50.810;4.442;2022-09-17T06:50:49;31.63;;;3.90;;
23608;SDS011;11982;50.810;4.442;2022-09-17T06:53:15;20.10;;;3.10;;
23608;SDS011;11982;50.810;4.442;2022-09-17T06:55:41;22.13;;;2.97;;
23608;SDS011;11982;50.810;4.442;2022-09-17T06:58:07;25.73;;;3.00;;
23608;SDS011;11982;50.810;4.442;2022-09-17T07:00:33;15.15;;;3.42;;
23608;SDS011;11982;50.810;4.442;2022-09-17T07:03:00;17.00;;;2.58;;
23608;SDS011;11982;50.810;4.442;2022-09-17T07:05:26;12.25;;;2.88;;
23608;SDS011;11982;50.810;4.442;2022-09-17T07:07:53;23.63;;;3.88;;
23608;SDS011;11982;50.810;4.442;2022-09-17T07:10:18;18.90;;;2.92;;
23608;SDS011;11982;50.810;4.442;2022-09-17T07:12:45;15.10;;;2.92;;
23608;SDS011;11982;50.810;4.442;2022-09-17T07:15:11;19.23;;;3.95;;
23608;SDS011;11982;50.810;4.442;2022-09-17T07:17:39;23.75;;;3.15;;
23608;SDS011;11982;50.810;4.442;2022-09-17T07:20:06;23.35;;;3.35;;
23608;SDS011;11982;50.810;4.442;2022-09-17T07:22:33;13.70;;;3.17;;
23608;SDS011;11982;50.810;4.442;2022-09-17T07:24:59;17.63;;;2.95;;
23608;SDS011;11982;50.810;4.442;2022-09-17T07:27:28;15.13;;;2.83;;
23608;SDS011;11982;50.810;4.442;2022-09-17T07:29:54;23.15;;;3.00;;
23608;SDS011;11982;50.810;4.442;2022-09-17T07:32:20;21.75;;;3.25;;
23608;SDS011;11982;50.810;4.442;2022-09-17T07:34:47;15.25;;;2.65;;
23608;SDS011;11982;50.810;4.442;2022-09-17T07:37:13;24.13;;;4.30;;
23608;SDS011;11982;50.810;4.442;2022-09-17T07:39:39;17.52;;;3.00;;
23608;SDS011;11982;50.810;4.442;2022-09-17T07:42:06;21.75;;;3.00;;
23608;SDS011;11982;50.810;4.442;2022-09-17T07:44:32;14.25;;;2.53;;
23608;SDS011;11982;50.810;4.442;2022-09-17T07:46:58;24.02;;;3.17;;
23608;SDS011;11982;50.810;4.442;2022-09-17T07:49:23;14.00;;;2.45;;
23608;SDS011;11982;50.810;4.442;2022-09-17T07:51:49;17.67;;;2.50;;
23608;SDS011;11982;50.810;4.442;2022-09-17T07:54:15;20.20;;;3.17;;
23608;SDS011;11982;50.810;4.442;2022-09-17T07:56:41;17.88;;;2.40;;
23608;SDS011;11982;50.810;4.442;2022-09-17T07:59:07;18.13;;;2.40;;
23608;SDS011;11982;50.810;4.442;2022-09-17T08:01:33;12.50;;;2.53;;
23608;SDS011;11982;50.810;4.442;2022-09-17T08:04:00;20.50;;;2.55;;
23608;SDS011;11982;50.810;4.442;2022-09-17T08:06:26;14.68;;;3.53;;
23608;SDS011;11982;50.810;4.442;2022-09-17T08:08:53;17.70;;;2.78;;
23608;SDS011;11982;50.810;4.442;2022-09-17T08:11:21;16.90;;;2.72;;
23608;SDS011;11982;50.810;4.442;2022-09-17T08:13:51;15.32;;;2.38;;
23608;SDS011;11982;50.810;4.442;2022-09-17T08:16:18;15.65;;;2.60;;
23608;SDS011;11982;50.810;4.442;2022-09-17T08:18:45;15.40;;;3.40;;
23608;SDS011;11982;50.810;4.442;2022-09-17T08:21:13;11.60;;;2.10;;
23608;SDS011;11982;50.810;4.442;2022-09-17T08:23:41;16.42;;;2.13;;
23608;SDS011;11982;50.810;4.442;2022-09-17T08:26:10;23.95;;;2.90;;
23608;SDS011;11982;50.810;4.442;2022-09-17T08:28:43;16.80;;;2.17;;
23608;SDS011;11982;50.810;4.442;2022-09-17T08:31:10;16.85;;;2.58;;
23608;SDS011;11982;50.810;4.442;2022-09-17T08:33:37;15.35;;;2.88;;
23608;SDS011;11982;50.810;4.442;2022-09-17T08:36:04;10.93;;;2.50;;
23608;SDS011;11982;50.810;4.442;2022-09-17T08:38:33;18.05;;;2.53;;
23608;SDS011;11982;50.810;4.442;2022-09-17T08:41:10;16.10;;;2.83;;
23608;SDS011;11982;50.810;4.442;2022-09-17T08:43:46;18.25;;;2.40;;
23608;SDS011;11982;50.810;4.442;2022-09-17T08:46:27;15.45;;;2.00;;
23608;SDS011;11982;50.810;4.442;2022-09-17T08:49:06;14.77;;;2.92;;
23608;SDS011;11982;50.810;4.442;2022-09-17T08:51:47;19.08;;;3.05;;
23608;SDS011;11982;50.810;4.442;2022-09-17T08:57:35;12.18;;;2.40;;
23608;SDS011;11982;50.810;4.442;2022-09-17T09:00:13;20.88;;;2.83;;
23608;SDS011;11982;50.810;4.442;2022-09-17T09:07:52;13.75;;;2.13;;
23608;SDS011;11982;50.810;4.442;2022-09-17T09:10:22;11.52;;;2.10;;
23608;SDS011;11982;50.810;4.442;2022-09-17T09:12:51;9.75;;;1.98;;
23608;SDS011;11982;50.810;4.442;2022-09-17T09:17:58;13.85;;;2.03;;
23608;SDS011;11982;50.810;4.442;2022-09-17T09:20:30;13.02;;;1.95;;
23608;SDS011;11982;50.810;4.442;2022-09-17T09:23:53;9.68;;;1.85;;
23608;SDS011;11982;50.810;4.442;2022-09-17T09:26:17;9.50;;;2.10;;
23608;SDS011;11982;50.810;4.442;2022-09-17T09:34:03;14.70;;;1.75;;
23608;SDS011;11982;50.810;4.442;2022-09-17T09:36:29;11.13;;;2.40;;
23608;SDS011;11982;50.810;4.442;2022-09-17T09:41:31;8.20;;;1.50;;
23608;SDS011;11982;50.810;4.442;2022-09-17T09:44:11;7.18;;;1.33;;
23608;SDS011;11982;50.810;4.442;2022-09-17T09:46:39;7.88;;;2.10;;
23608;SDS011;11982;50.810;4.442;2022-09-17T09:49:23;10.05;;;1.98;;
23608;SDS011;11982;50.810;4.442;2022-09-17T09:57:52;6.60;;;1.50;;
23608;SDS011;11982;50.810;4.442;2022-09-17T10:00:34;5.60;;;1.65;;
23608;SDS011;11982;50.810;4.442;2022-09-17T10:08:26;7.00;;;1.60;;
23608;SDS011;11982;50.810;4.442;2022-09-17T10:13:23;6.68;;;1.20;;
23608;SDS011;11982;50.810;4.442;2022-09-17T10:15:50;10.10;;;1.63;;
23608;SDS011;11982;50.810;4.442;2022-09-17T10:18:17;5.55;;;1.35;;
23608;SDS011;11982;50.810;4.442;2022-09-17T10:20:49;6.57;;;1.27;;
23608;SDS011;11982;50.810;4.442;2022-09-17T10:23:15;5.45;;;1.30;;
23608;SDS011;11982;50.810;4.442;2022-09-17T10:25:41;7.22;;;1.35;;
23608;SDS011;11982;50.810;4.442;2022-09-17T10:28:20;5.18;;;1.55;;
23608;SDS011;11982;50.810;4.442;2022-09-17T10:31:06;4.53;;;1.40;;
23608;SDS011;11982;50.810;4.442;2022-09-17T10:33:36;7.72;;;1.60;;
23608;SDS011;11982;50.810;4.442;2022-09-17T10:36:10;9.60;;;1.40;;
23608;SDS011;11982;50.810;4.442;2022-09-17T10:43:49;7.70;;;1.30;;
23608;SDS011;11982;50.810;4.442;2022-09-17T10:46:17;4.15;;;1.45;;
23608;SDS011;11982;50.810;4.442;2022-09-17T10:49:08;4.63;;;1.60;;
23608;SDS011;11982;50.810;4.442;2022-09-17T10:51:36;6.35;;;1.33;;
23608;SDS011;11982;50.810;4.442;2022-09-17T10:56:38;8.52;;;1.35;;
23608;SDS011;11982;50.810;4.442;2022-09-17T10:59:14;8.27;;;1.35;;
23608;SDS011;11982;50.810;4.442;2022-09-17T11:02:02;3.92;;;1.05;;
23608;SDS011;11982;50.810;4.442;2022-09-17T11:04:49;7.78;;;1.25;;
23608;SDS011;11982;50.810;4.442;2022-09-17T11:07:48;7.65;;;1.50;;
23608;SDS011;11982;50.810;4.442;2022-09-17T11:10:27;6.90;;;1.58;;
23608;SDS011;11982;50.810;4.442;2022-09-17T11:13:03;5.65;;;1.70;;
23608;SDS011;11982;50.810;4.442;2022-09-17T11:15:52;5.43;;;1.65;;
23608;SDS011;11982;50.810;4.442;2022-09-17T11:18:42;5.57;;;1.70;;
23608;SDS011;11982;50.810;4.442;2022-09-17T11:24:20;5.63;;;1.27;;
23608;SDS011;11982;50.810;4.442;2022-09-17T11:35:24;9.68;;;1.60;;
23608;SDS011;11982;50.810;4.442;2022-09-17T11:46:42;8.80;;;1.65;;
23608;SDS011;11982;50.810;4.442;2022-09-17T11:49:24;5.18;;;1.35;;
23608;SDS011;11982;50.810;4.442;2022-09-17T11:52:00;6.60;;;1.20;;
23608;SDS011;11982;50.810;4.442;2022-09-17T11:54:31;6.82;;;1.50;;
23608;SDS011;11982;50.810;4.442;2022-09-17T11:57:14;11.80;;;2.10;;
23608;SDS011;11982;50.810;4.442;2022-09-17T12:10:32;10.65;;;1.95;;
23608;SDS011;11982;50.810;4.442;2022-09-17T12:15:50;9.43;;;2.05;;
23608;SDS011;11982;50.810;4.442;2022-09-17T12:21:12;12.98;;;2.17;;
23608;SDS011;11982;50.810;4.442;2022-09-17T12:23:53;17.08;;;2.97;;
23608;SDS011;11982;50.810;4.442;2022-09-17T12:30:14;14.57;;;3.17;;
23608;SDS011;11982;50.810;4.442;2022-09-17T12:32:45;15.90;;;2.70;;
23608;SDS011;11982;50.810;4.442;2022-09-17T12:40:58;19.65;;;2.20;;
23608;SDS011;11982;50.810;4.442;2022-09-17T12:43:38;20.52;;;2.65;;
23608;SDS011;11982;50.810;4.442;2022-09-17T12:51:57;13.27;;;2.33;;
23608;SDS011;11982;50.810;4.442;2022-09-17T13:15:45;11.93;;;2.30;;
23608;SDS011;11982;50.810;4.442;2022-09-17T13:26:02;18.73;;;2.45;;
23608;SDS011;11982;50.810;4.442;2022-09-17T13:28:37;18.90;;;2.97;;
23608;SDS011;11982;50.810;4.442;2022-09-17T13:31:11;21.92;;;3.28;;
23608;SDS011;11982;50.810;4.442;2022-09-17T13:33:57;12.93;;;2.80;;
23608;SDS011;11982;50.810;4.442;2022-09-17T13:36:39;13.25;;;3.67;;
23608;SDS011;11982;50.810;4.442;2022-09-17T13:39:07;15.15;;;2.97;;
23608;SDS011;11982;50.810;4.442;2022-09-17T13:41:57;18.80;;;3.53;;
23608;SDS011;11982;50.810;4.442;2022-09-17T13:44:27;13.25;;;2.42;;
23608;SDS011;11982;50.810;4.442;2022-09-17T13:46:53;19.20;;;3.13;;
23608;SDS011;11982;50.810;4.442;2022-09-17T13:49:35;14.43;;;2.60;;
23608;SDS011;11982;50.810;4.442;2022-09-17T13:52:13;19.85;;;3.45;;
23608;SDS011;11982;50.810;4.442;2022-09-17T13:54:55;18.75;;;2.85;;
23608;SDS011;11982;50.810;4.442;2022-09-17T13:57:21;14.10;;;2.20;;
23608;SDS011;11982;50.810;4.442;2022-09-17T13:59:57;12.45;;;2.40;;
23608;SDS011;11982;50.810;4.442;2022-09-17T14:02:31;12.02;;;2.88;;
23608;SDS011;11982;50.810;4.442;2022-09-17T14:08:09;11.68;;;3.30;;
23608;SDS011;11982;50.810;4.442;2022-09-17T14:10:41;10.60;;;2.05;;
23608;SDS011;11982;50.810;4.442;2022-09-17T14:16:51;10.30;;;1.95;;
23608;SDS011;11982;50.810;4.442;2022-09-17T14:24:24;7.78;;;1.35;;
23608;SDS011;11982;50.810;4.442;2022-09-17T14:32:07;7.30;;;1.40;;
23608;SDS011;11982;50.810;4.442;2022-09-17T14:34:39;9.30;;;1.17;;
23608;SDS011;11982;50.810;4.442;2022-09-17T14:37:07;7.75;;;1.88;;
23608;SDS011;11982;50.810;4.442;2022-09-17T14:39:37;8.23;;;1.90;;
23608;SDS011;11982;50.810;4.442;2022-09-17T14:42:04;12.60;;;2.33;;
23608;SDS011;11982;50.810;4.442;2022-09-17T14:48:28;7.57;;;1.55;;
23608;SDS011;11982;50.810;4.442;2022-09-17T14:53:43;8.82;;;1.88;;
23608;SDS011;11982;50.810;4.442;2022-09-17T14:56:10;6.45;;;1.42;;
23608;SDS011;11982;50.810;4.442;2022-09-17T14:58:42;8.52;;;2.15;;
23608;SDS011;11982;50.810;4.442;2022-09-17T15:01:22;5.85;;;1.40;;
23608;SDS011;11982;50.810;4.442;2022-09-17T15:06:37;5.43;;;1.57;;
23608;SDS011;11982;50.810;4.442;2022-09-17T15:09:03;8.15;;;1.80;;
23608;SDS011;11982;50.810;4.442;2022-09-17T15:11:30;5.35;;;1.30;;
23608;SDS011;11982;50.810;4.442;2022-09-17T15:14:05;11.77;;;1.50;;
23608;SDS011;11982;50.810;4.442;2022-09-17T15:16:36;7.13;;;1.25;;
23608;SDS011;11982;50.810;4.442;2022-09-17T15:19:02;4.75;;;1.45;;
23608;SDS011;11982;50.810;4.442;2022-09-17T15:21:30;11.02;;;4.07;;
23608;SDS011;11982;50.810;4.442;2022-09-17T15:26:48;15.20;;;3.45;;
23608;SDS011;11982;50.810;4.442;2022-09-17T15:29:19;6.57;;;1.88;;
23608;SDS011;11982;50.810;4.442;2022-09-17T15:31:48;8.45;;;2.47;;
23608;SDS011;11982;50.810;4.442;2022-09-17T15:34:13;11.18;;;2.90;;
23608;SDS011;11982;50.810;4.442;2022-09-17T15:36:39;7.75;;;4.03;;
23608;SDS011;11982;50.810;4.442;2022-09-17T15:41:56;17.80;;;3.10;;
23608;SDS011;11982;50.810;4.442;2022-09-17T15:44:23;9.77;;;2.25;;
23608;SDS011;11982;50.810;4.442;2022-09-17T15:46:50;5.85;;;2.30;;
23608;SDS011;11982;50.810;4.442;2022-09-17T15:51:52;7.35;;;3.00;;
23608;SDS011;11982;50.810;4.442;2022-09-17T15:54:27;10.77;;;2.58;;
23608;SDS011;11982;50.810;4.442;2022-09-17T15:56:55;10.00;;;2.17;;
23608;SDS011;11982;50.810;4.442;2022-09-17T15:59:28;10.63;;;2.15;;
23608;SDS011;11982;50.810;4.442;2022-09-17T16:01:57;4.68;;;1.83;;
23608;SDS011;11982;50.810;4.442;2022-09-17T16:12:10;8.57;;;2.20;;
23608;SDS011;11982;50.810;4.442;2022-09-17T16:14:37;12.15;;;2.50;;
23608;SDS011;11982;50.810;4.442;2022-09-17T16:17:19;9.85;;;2.78;;
23608;SDS011;11982;50.810;4.442;2022-09-17T16:19:47;8.13;;;2.75;;
23608;SDS011;11982;50.810;4.442;2022-09-17T16:22:13;14.38;;;4.22;;
23608;SDS011;11982;50.810;4.442;2022-09-17T16:24:39;8.68;;;2.10;;
23608;SDS011;11982;50.810;4.442;2022-09-17T16:27:05;13.50;;;2.85;;
23608;SDS011;11982;50.810;4.442;2022-09-17T16:29:31;15.48;;;2.85;;
23608;SDS011;11982;50.810;4.442;2022-09-17T16:31:56;9.40;;;2.90;;
23608;SDS011;11982;50.810;4.442;2022-09-17T16:34:22;7.95;;;2.60;;
23608;SDS011;11982;50.810;4.442;2022-09-17T16:36:49;11.95;;;3.10;;
23608;SDS011;11982;50.810;4.442;2022-09-17T16:39:14;10.88;;;2.70;;
23608;SDS011;11982;50.810;4.442;2022-09-17T16:41:40;10.10;;;2.85;;
23608;SDS011;11982;50.810;4.442;2022-09-17T16:44:06;8.90;;;1.80;;
23608;SDS011;11982;50.810;4.442;2022-09-17T16:46:31;6.05;;;2.30;;
23608;SDS011;11982;50.810;4.442;2022-09-17T16:48:57;7.65;;;1.85;;
23608;SDS011;11982;50.810;4.442;2022-09-17T16:51:24;10.23;;;2.22;;
23608;SDS011;11982;50.810;4.442;2022-09-17T16:53:50;12.27;;;2.75;;
23608;SDS011;11982;50.810;4.442;2022-09-17T16:56:15;10.55;;;4.05;;
23608;SDS011;11982;50.810;4.442;2022-09-17T16:58:41;10.07;;;3.28;;
23608;SDS011;11982;50.810;4.442;2022-09-17T17:01:07;9.63;;;3.25;;
23608;SDS011;11982;50.810;4.442;2022-09-17T17:03:37;8.77;;;1.80;;
23608;SDS011;11982;50.810;4.442;2022-09-17T17:06:03;16.08;;;3.83;;
23608;SDS011;11982;50.810;4.442;2022-09-17T17:08:30;9.13;;;3.20;;
23608;SDS011;11982;50.810;4.442;2022-09-17T17:10:56;9.88;;;3.60;;
23608;SDS011;11982;50.810;4.442;2022-09-17T17:13:22;9.25;;;2.60;;
23608;SDS011;11982;50.810;4.442;2022-09-17T17:15:48;10.25;;;2.60;;
23608;SDS011;11982;50.810;4.442;2022-09-17T17:18:13;8.45;;;2.40;;
23608;SDS011;11982;50.810;4.442;2022-09-17T17:20:39;9.60;;;2.42;;
23608;SDS011;11982;50.810;4.442;2022-09-17T17:23:05;12.68;;;2.63;;
23608;SDS011;11982;50.810;4.442;2022-09-17T17:25:30;12.93;;;3.17;;
23608;SDS011;11982;50.810;4.442;2022-09-17T17:27:56;7.25;;;2.00;;
23608;SDS011;11982;50.810;4.442;2022-09-17T17:30:22;19.70;;;6.65;;
23608;SDS011;11982;50.810;4.442;2022-09-17T17:32:48;12.07;;;2.65;;
23608;SDS011;11982;50.810;4.442;2022-09-17T17:35:15;9.63;;;3.35;;
23608;SDS011;11982;50.810;4.442;2022-09-17T17:37:41;9.75;;;2.88;;
23608;SDS011;11982;50.810;4.442;2022-09-17T17:40:07;14.45;;;3.00;;
23608;SDS011;11982;50.810;4.442;2022-09-17T17:42:34;19.73;;;3.72;;
23608;SDS011;11982;50.810;4.442;2022-09-17T17:45:06;11.90;;;3.30;;
23608;SDS011;11982;50.810;4.442;2022-09-17T17:47:32;10.23;;;2.85;;
23608;SDS011;11982;50.810;4.442;2022-09-17T17:49:58;13.65;;;3.15;;
23608;SDS011;11982;50.810;4.442;2022-09-17T17:52:24;18.08;;;3.33;;
23608;SDS011;11982;50.810;4.442;2022-09-17T17:54:49;11.60;;;4.10;;
23608;SDS011;11982;50.810;4.442;2022-09-17T17:57:15;19.60;;;8.30;;
23608;SDS011;11982;50.810;4.442;2022-09-17T17:59:41;16.50;;;3.72;;
23608;SDS011;11982;50.810;4.442;2022-09-17T18:02:06;14.68;;;3.63;;
23608;SDS011;11982;50.810;4.442;2022-09-17T18:04:33;16.05;;;4.68;;
23608;SDS011;11982;50.810;4.442;2022-09-17T18:06:58;17.88;;;5.38;;
23608;SDS011;11982;50.810;4.442;2022-09-17T18:09:24;12.10;;;3.00;;
23608;SDS011;11982;50.810;4.442;2022-09-17T18:11:50;16.33;;;3.63;;
23608;SDS011;11982;50.810;4.442;2022-09-17T18:14:15;20.42;;;4.93;;
23608;SDS011;11982;50.810;4.442;2022-09-17T18:16:41;9.85;;;3.90;;
23608;SDS011;11982;50.810;4.442;2022-09-17T18:19:08;16.08;;;4.43;;